createdAt,value
2022-10-05T00:00:28.422Z,100884.22
2022-10-05T00:02:56.206Z,100886.84
2022-10-05T00:05:34.424Z,100888.56
2022-10-05T00:08:12.096Z,100893.75
2022-10-05T00:10:41.569Z,100877.31
2022-10-05T00:13:26.795Z,100880.78
2022-10-05T00:15:59.891Z,100882.53
2022-10-05T00:18:27.966Z,100880.75
2022-10-05T00:20:56.183Z,100879.91
2022-10-05T00:23:31.551Z,100882.50
2022-10-05T00:26:33.221Z,100872.16
2022-10-05T00:29:02.863Z,100873.88
2022-10-05T00:31:32.866Z,100877.31
2022-10-05T00:33:59.983Z,100859.19
2022-10-05T00:36:27.061Z,100875.56
2022-10-05T00:38:55.357Z,100854.88
2022-10-05T00:41:50.529Z,100863.50
2022-10-05T00:44:33.054Z,100847.97
2022-10-05T00:47:11.586Z,100855.72
2022-10-05T00:49:38.534Z,100853.13
2022-10-05T00:52:33.124Z,100853.13
2022-10-05T00:55:25.325Z,100863.50
2022-10-05T00:58:17.568Z,100869.53
2022-10-05T01:00:59.020Z,100865.25
2022-10-05T01:04:05.188Z,100861.78
2022-10-05T01:07:03.094Z,100861.78
2022-10-05T01:09:48.194Z,100866.06
2022-10-05T01:12:33.681Z,100860.06
2022-10-05T01:15:10.948Z,100849.69
2022-10-05T01:17:42.067Z,100847.13
2022-10-05T01:20:39.845Z,100835.88
2022-10-05T01:23:40.544Z,100828.13
2022-10-05T01:26:41.413Z,100830.69
2022-10-05T01:29:22.707Z,100831.59
2022-10-05T01:31:58.639Z,100830.69
2022-10-05T01:34:49.975Z,100829.84
2022-10-05T01:37:28.935Z,100827.22
2022-10-05T01:40:08.626Z,100827.22
2022-10-05T01:42:54.426Z,100822.06
2022-10-05T01:45:37.437Z,100832.41
2022-10-05T01:48:31.134Z,100818.63
2022-10-05T01:51:20.286Z,100825.50
2022-10-05T01:53:58.124Z,100822.03
2022-10-05T01:56:58.316Z,100822.03
2022-10-05T01:59:39.998Z,100809.09
2022-10-05T02:02:11.402Z,100811.69
2022-10-05T02:05:03.773Z,100790.13
2022-10-05T02:07:35.173Z,100794.44
2022-10-05T02:10:17.946Z,100785.81
2022-10-05T02:12:47.979Z,100773.78
2022-10-05T02:15:17.667Z,100806.53
2022-10-05T02:17:49.460Z,100785.81
2022-10-05T02:20:26.416Z,100790.97
2022-10-05T02:22:56.483Z,100785.78
2022-10-05T02:25:27.924Z,100787.50
2022-10-05T02:28:15.358Z,100775.44
2022-10-05T02:30:48.895Z,100772.00
2022-10-05T02:33:30.865Z,100773.69
2022-10-05T02:36:10.523Z,100784.03
2022-10-05T02:38:59.617Z,100757.31
2022-10-05T02:41:32.843Z,100786.63
2022-10-05T02:44:34.984Z,100784.03
2022-10-05T02:47:45.900Z,100782.31
2022-10-05T02:50:24.586Z,100780.56
2022-10-05T02:53:14.864Z,100784.03
2022-10-05T02:55:50.886Z,100787.47
2022-10-05T02:58:25.145Z,100791.78
2022-10-05T03:00:58.910Z,100782.31
2022-10-05T03:03:46.578Z,100796.09
2022-10-05T03:06:29.314Z,100800.41
2022-10-05T03:09:07.925Z,100795.25
2022-10-05T03:12:00.374Z,100808.16
2022-10-05T03:14:41.123Z,100803.03
2022-10-05T03:17:19.275Z,100801.28
2022-10-05T03:20:19.363Z,100805.63
2022-10-05T03:23:01.923Z,100778.03
2022-10-05T03:25:49.484Z,100799.56
2022-10-05T03:28:35.815Z,100793.53
2022-10-05T03:31:11.895Z,100787.50
2022-10-05T03:33:50.864Z,100775.47
2022-10-05T03:37:02.546Z,100787.53
2022-10-05T03:39:42.226Z,100782.38
2022-10-05T03:42:36.421Z,100790.16
2022-10-05T03:45:29.010Z,100785.84
2022-10-05T03:48:05.914Z,100787.53
2022-10-05T03:50:44.693Z,100792.72
2022-10-05T03:53:20.758Z,100785.84
2022-10-05T03:56:07.834Z,100787.56
2022-10-05T03:58:57.405Z,100785.88
2022-10-05T04:01:39.659Z,100779.84
2022-10-05T04:04:16.564Z,100781.53
2022-10-05T04:06:49.468Z,100775.53
2022-10-05T04:09:36.866Z,100763.44
2022-10-05T04:12:22.529Z,100782.44
2022-10-05T04:15:23.895Z,100775.53
2022-10-05T04:18:01.624Z,100779.84
2022-10-05T04:20:49.391Z,100764.34
2022-10-05T04:23:42.756Z,100773.81
2022-10-05T04:26:39.897Z,100772.09
2022-10-05T04:29:36.559Z,100777.25
2022-10-05T04:32:13.436Z,100773.84
2022-10-05T04:34:55.283Z,100779.88
2022-10-05T04:37:54.764Z,100773.84
2022-10-05T04:44:07.367Z,100765.22
2022-10-05T04:47:01.905Z,100755.75
2022-10-05T04:50:27.203Z,100754.88
2022-10-05T04:53:14.175Z,100756.59
2022-10-05T04:55:58.380Z,100760.94
2022-10-05T04:59:04.994Z,100761.78
2022-10-05T05:02:03.495Z,100765.22
2022-10-05T05:04:50.830Z,100748.84
2022-10-05T05:07:37.125Z,100741.94
2022-10-05T05:10:22.327Z,100744.50
2022-10-05T05:13:24.905Z,100747.97
2022-10-05T05:16:01.348Z,100749.69
2022-10-05T05:19:05.794Z,100754.88
2022-10-05T05:21:35.857Z,100760.06
2022-10-05T05:24:21.494Z,100756.59
2022-10-05T05:27:16.184Z,100759.19
2022-10-05T05:29:50.310Z,100758.31
2022-10-05T05:32:29.633Z,100764.38
2022-10-05T05:35:02.816Z,100762.63
2022-10-05T05:37:39.449Z,100766.94
2022-10-05T05:40:16.752Z,100766.09
2022-10-05T05:42:53.806Z,100779.00
2022-10-05T05:45:31.442Z,100778.16
2022-10-05T05:48:02.336Z,100773.81
2022-10-05T05:51:00.968Z,100763.44
2022-10-05T05:53:50.975Z,100767.75
2022-10-05T05:56:24.349Z,100768.59
2022-10-05T05:59:14.697Z,100761.69
2022-10-05T06:01:53.078Z,100765.16
2022-10-05T06:04:28.505Z,100741.06
2022-10-05T06:06:58.445Z,100759.97
2022-10-05T06:09:42.104Z,100753.06
2022-10-05T06:12:36.203Z,100747.00
2022-10-05T06:15:37.664Z,100760.81
2022-10-05T06:18:12.724Z,100729.75
2022-10-05T06:20:46.276Z,100755.56
2022-10-05T06:23:27.508Z,100749.53
2022-10-05T06:26:17.733Z,100747.78
2022-10-05T06:28:56.524Z,100744.28
2022-10-05T06:31:29.913Z,100741.66
2022-10-05T06:34:28.058Z,100739.03
2022-10-05T06:37:07.485Z,100733.81
2022-10-05T06:40:18.054Z,100722.56
2022-10-05T06:43:04.156Z,100728.56
2022-10-05T06:46:00.398Z,100725.09
2022-10-05T06:49:22.554Z,100725.06
2022-10-05T06:52:19.196Z,100721.56
2022-10-05T06:54:52.053Z,100709.44
2022-10-05T06:57:26.259Z,100715.50
2022-10-05T07:00:04.850Z,100726.72
2022-10-05T07:02:35.184Z,100731.88
2022-10-05T07:05:27.298Z,100730.13
2022-10-05T07:08:03.275Z,100724.91
2022-10-05T07:10:51.786Z,100720.56
2022-10-05T07:13:37.597Z,100730.06
2022-10-05T07:16:36.491Z,100721.41
2022-10-05T07:19:18.634Z,100733.47
2022-10-05T07:22:19.230Z,100733.44
2022-10-05T07:25:12.539Z,100689.50
2022-10-05T07:27:51.872Z,100733.38
2022-10-05T07:30:20.547Z,100704.09
2022-10-05T07:33:06.718Z,100738.41
2022-10-05T07:35:55.838Z,100752.16
2022-10-05T07:38:52.225Z,100757.31
2022-10-05T07:41:25.074Z,100742.50
2022-10-05T07:44:05.026Z,100736.41
2022-10-05T07:46:57.018Z,100729.50
2022-10-05T07:49:34.739Z,100732.03
2022-10-05T07:52:34.656Z,100725.97
2022-10-05T07:55:20.052Z,100740.59
2022-10-05T07:57:47.936Z,100750.09
2022-10-05T08:00:43.455Z,100748.34
2022-10-05T08:03:17.629Z,100743.94
2022-10-05T08:05:47.243Z,100741.22
2022-10-05T08:08:32.984Z,100734.22
2022-10-05T08:11:07.307Z,100739.38
2022-10-05T08:13:56.074Z,100748.84
2022-10-05T08:16:31.444Z,100735.00
2022-10-05T08:19:24.364Z,100741.00
2022-10-05T08:21:59.303Z,100713.50
2022-10-05T08:24:50.005Z,100744.41
2022-10-05T08:27:36.423Z,100754.75
2022-10-05T08:30:09.287Z,100746.09
2022-10-05T08:32:44.253Z,100735.66
2022-10-05T08:35:23.405Z,100729.44
2022-10-05T08:37:51.285Z,100719.78
2022-10-05T08:40:52.465Z,100726.56
2022-10-05T08:43:35.284Z,100729.00
2022-10-05T08:46:30.582Z,100730.59
2022-10-05T08:49:43.940Z,100729.72
2022-10-05T08:52:31.024Z,100738.13
2022-10-05T08:55:10.010Z,100741.47
2022-10-05T08:57:52.285Z,100749.09
2022-10-05T09:00:21.693Z,100736.03
2022-10-05T09:03:20.071Z,100745.56
2022-10-05T09:05:58.007Z,100738.56
2022-10-05T09:09:06.725Z,100736.03
2022-10-05T09:11:39.127Z,100735.22
2022-10-05T09:14:18.525Z,100737.84
2022-10-05T09:17:16.365Z,100730.94
2022-10-05T09:20:02.084Z,100724.91
2022-10-05T09:22:39.893Z,100710.19
2022-10-05T09:25:22.770Z,100711.84
2022-10-05T09:27:55.284Z,100664.47
2022-10-05T09:30:33.997Z,100697.97
2022-10-05T09:33:14.124Z,100691.81
2022-10-05T09:36:03.005Z,100686.53
2022-10-05T09:38:57.304Z,100683.78
2022-10-05T09:41:42.787Z,100701.81
2022-10-05T09:44:28.067Z,100704.38
2022-10-05T09:46:58.286Z,100700.84
2022-10-05T09:49:46.751Z,100692.94
2022-10-05T09:52:38.704Z,100690.09
2022-10-05T09:55:25.967Z,100686.41
2022-10-05T09:58:48.570Z,100669.75
2022-10-05T10:01:34.303Z,100685.78
2022-10-05T10:04:19.139Z,100673.72
2022-10-05T10:07:05.264Z,100694.09
2022-10-05T10:10:13.274Z,100702.59
2022-10-05T10:13:17.298Z,100679.91
2022-10-05T10:16:23.804Z,100673.44
2022-10-05T10:19:15.404Z,100688.06
2022-10-05T10:21:49.056Z,100684.53
2022-10-05T10:24:40.418Z,100684.47
2022-10-05T10:27:35.308Z,100689.53
2022-10-05T10:30:41.233Z,100691.06
2022-10-05T10:33:13.705Z,100677.06
2022-10-05T10:36:07.233Z,100657.13
2022-10-05T10:39:00.190Z,100626.97
2022-10-05T10:41:44.935Z,100650.72
2022-10-05T10:44:33.625Z,100659.28
2022-10-05T10:47:21.949Z,100654.75
2022-10-05T10:50:10.716Z,100651.94
2022-10-05T10:52:47.146Z,100656.22
2022-10-05T10:55:55.270Z,100653.81
2022-10-05T10:58:35.183Z,100659.75
2022-10-05T11:01:21.146Z,100656.28
2022-10-05T11:04:22.843Z,100659.00
2022-10-05T11:06:56.164Z,100655.56
2022-10-05T11:09:38.131Z,100650.41
2022-10-05T11:12:23.678Z,100646.22
2022-10-05T11:14:52.029Z,100650.56
2022-10-05T11:17:31.909Z,100653.25
2022-10-05T11:20:19.803Z,100657.63
2022-10-05T11:23:05.427Z,100652.47
2022-10-05T11:25:44.699Z,100648.03
2022-10-05T11:28:49.105Z,100657.63
2022-10-05T11:31:48.570Z,100647.38
2022-10-05T11:34:24.698Z,100663.78
2022-10-05T11:37:13.027Z,100654.25
2022-10-05T11:40:04.932Z,100638.78
2022-10-05T11:42:58.729Z,100655.16
2022-10-05T11:45:43.961Z,100654.31
2022-10-05T11:48:33.434Z,100652.50
2022-10-05T11:51:34.574Z,100648.19
2022-10-05T11:54:51.990Z,100645.59
2022-10-05T11:57:46.929Z,100648.16
2022-10-05T12:00:21.174Z,100648.09
2022-10-05T12:03:00.726Z,100645.41
2022-10-05T12:05:55.743Z,100643.72
2022-10-05T12:08:48.404Z,100640.28
2022-10-05T12:11:40.395Z,100638.50
2022-10-05T12:14:16.542Z,100647.19
2022-10-05T12:16:54.485Z,100635.06
2022-10-05T12:19:36.904Z,100633.38
2022-10-05T12:22:15.854Z,100627.28
2022-10-05T12:25:02.243Z,100592.09
2022-10-05T12:27:39.487Z,100617.78
2022-10-05T12:30:16.295Z,100614.44
2022-10-05T12:33:01.617Z,100619.50
2022-10-05T12:35:47.869Z,100603.84
2022-10-05T12:38:28.761Z,100610.75
2022-10-05T12:43:54.827Z,100610.75
2022-10-05T12:46:34.319Z,100610.66
2022-10-05T12:49:38.231Z,100607.13
2022-10-05T12:52:11.550Z,100611.41
2022-10-05T12:54:48.517Z,100594.88
2022-10-05T12:57:43.172Z,100608.75
2022-10-05T13:00:31.720Z,100597.34
2022-10-05T13:03:18.130Z,100596.50
2022-10-05T13:06:08.182Z,100603.44
2022-10-05T13:08:51.596Z,100584.44
2022-10-05T13:11:30.579Z,100601.56
2022-10-05T13:14:16.671Z,100591.13
2022-10-05T13:17:28.857Z,100580.75
2022-10-05T13:20:07.983Z,100579.13
2022-10-05T13:22:41.287Z,100583.53
2022-10-05T13:25:14.159Z,100589.66
2022-10-05T13:27:45.969Z,100578.41
2022-10-05T13:30:18.189Z,100577.56
2022-10-05T13:32:52.364Z,100577.56
2022-10-05T13:35:49.190Z,100577.66
2022-10-05T13:38:25.200Z,100575.97
2022-10-05T13:41:17.981Z,100564.72
2022-10-05T13:44:23.360Z,100571.78
2022-10-05T13:47:09.382Z,100580.38
2022-10-05T13:49:51.074Z,100583.06
2022-10-05T13:52:26.893Z,100567.31
2022-10-05T13:55:21.116Z,100570.84
2022-10-05T13:57:59.070Z,100557.91
2022-10-05T14:00:27.422Z,100571.69
2022-10-05T14:02:57.364Z,100568.25
2022-10-05T14:05:29.562Z,100572.63
2022-10-05T14:08:10.497Z,100572.56
2022-10-05T14:10:39.491Z,100569.09
2022-10-05T14:13:23.733Z,100556.91
2022-10-05T14:16:15.493Z,100562.09
2022-10-05T14:19:18.740Z,100553.44
2022-10-05T14:21:59.779Z,100555.19
2022-10-05T14:24:43.743Z,100562.19
2022-10-05T14:27:30.671Z,100567.41
2022-10-05T14:30:02.249Z,100570.88
2022-10-05T14:32:43.601Z,100567.50
2022-10-05T14:35:10.553Z,100572.78
2022-10-05T14:37:46.880Z,100575.44
2022-10-05T14:40:31.371Z,100570.31
2022-10-05T14:43:01.867Z,100552.38
2022-10-05T14:45:33.550Z,100564.38
2022-10-05T14:48:00.795Z,100560.09
2022-10-05T14:50:31.009Z,100554.91
2022-10-05T14:53:10.507Z,100544.50
2022-10-05T14:56:12.789Z,100545.41
2022-10-05T14:59:05.381Z,100552.38
2022-10-05T15:01:36.790Z,100547.16
2022-10-05T15:04:25.302Z,100536.81
2022-10-05T15:07:04.097Z,100540.28
2022-10-05T15:09:40.156Z,100535.16
2022-10-05T15:12:07.771Z,100514.72
2022-10-05T15:14:43.671Z,100537.03
2022-10-05T15:17:18.325Z,100527.56
2022-10-05T15:20:13.479Z,100516.50
2022-10-05T15:23:00.639Z,100523.41
2022-10-05T15:25:46.774Z,100535.66
2022-10-05T15:28:37.918Z,100523.56
2022-10-05T15:31:19.030Z,100518.44
2022-10-05T15:33:56.950Z,100510.72
2022-10-05T15:37:03.732Z,100514.25
2022-10-05T15:39:44.778Z,100515.09
2022-10-05T15:42:16.633Z,100515.09
2022-10-05T15:45:13.719Z,100515.09
2022-10-05T15:47:47.473Z,100511.66
2022-10-05T15:50:17.508Z,100507.34
2022-10-05T15:53:05.507Z,100512.56
2022-10-05T15:55:53.139Z,100511.72
2022-10-05T15:58:31.660Z,100517.88
2022-10-05T16:01:05.666Z,100510.91
2022-10-05T16:03:49.568Z,100500.66
2022-10-05T16:07:02.547Z,100504.88
2022-10-05T16:09:47.563Z,100505.84
2022-10-05T16:12:38.492Z,100472.44
2022-10-05T16:15:26.819Z,100490.47
2022-10-05T16:18:12.368Z,100487.97
2022-10-05T16:20:57.346Z,100507.72
2022-10-05T16:23:42.068Z,100501.69
2022-10-05T16:26:32.790Z,100501.75
2022-10-05T16:29:11.490Z,100500.91
2022-10-05T16:32:06.003Z,100494.94
2022-10-05T16:34:49.761Z,100493.19
2022-10-05T16:37:37.219Z,100495.94
2022-10-05T16:40:04.328Z,100495.88
2022-10-05T16:42:57.990Z,100499.38
2022-10-05T16:45:44.650Z,100487.22
2022-10-05T16:48:28.539Z,100499.41
2022-10-05T16:51:17.365Z,100502.06
2022-10-05T16:54:37.640Z,100500.41
2022-10-05T16:57:18.121Z,100509.19
2022-10-05T16:59:54.412Z,100500.56
2022-10-05T17:02:27.608Z,100507.53
2022-10-05T17:05:07.576Z,100513.69
2022-10-05T17:07:53.650Z,100514.59
2022-10-05T17:10:38.120Z,100515.44
2022-10-05T17:13:29.844Z,100515.59
2022-10-05T17:16:24.217Z,100514.75
2022-10-05T17:19:15.599Z,100492.56
2022-10-05T17:22:08.028Z,100518.28
2022-10-05T17:24:58.388Z,100516.53
2022-10-05T17:27:25.451Z,100507.84
2022-10-05T17:30:16.249Z,100507.88
2022-10-05T17:33:04.791Z,100509.63
2022-10-05T17:36:08.788Z,100510.53
2022-10-05T17:38:35.748Z,100509.69
2022-10-05T17:41:06.638Z,100506.25
2022-10-05T17:43:34.352Z,100508.03
2022-10-05T17:46:10.128Z,100509.81
2022-10-05T17:49:13.588Z,100508.16
2022-10-05T17:51:59.234Z,100511.69
2022-10-05T17:54:50.101Z,100504.69
2022-10-05T17:57:25.784Z,100508.22
2022-10-05T17:59:52.919Z,100497.78
2022-10-05T18:02:20.152Z,100497.78
2022-10-05T18:05:05.314Z,100491.75
2022-10-05T18:07:38.366Z,100482.38
2022-10-05T18:10:17.277Z,100489.09
2022-10-05T18:12:46.162Z,100485.66
2022-10-05T18:15:25.353Z,100489.03
2022-10-05T18:17:53.399Z,100488.19
2022-10-05T18:20:32.498Z,100483.88
2022-10-05T18:23:09.930Z,100483.84
2022-10-05T18:26:06.771Z,100483.03
2022-10-05T18:28:57.639Z,100481.28
2022-10-05T18:32:05.372Z,100447.91
2022-10-05T18:34:38.625Z,100483.84
2022-10-05T18:37:31.950Z,100476.94
2022-10-05T18:40:22.131Z,100479.53
2022-10-05T18:43:00.747Z,100485.56
2022-10-05T18:45:40.143Z,100493.34
2022-10-05T18:48:20.623Z,100485.56
2022-10-05T18:51:01.081Z,100484.72
2022-10-05T18:53:34.302Z,100486.47
2022-10-05T18:56:13.293Z,100420.66
2022-10-05T18:59:10.111Z,100485.72
2022-10-05T19:02:19.012Z,100484.84
2022-10-05T19:04:52.020Z,100484.00
2022-10-05T19:07:42.883Z,100484.03
2022-10-05T19:10:23.282Z,100488.44
2022-10-05T19:12:52.893Z,100495.44
2022-10-05T19:15:41.735Z,100498.03
2022-10-05T19:18:19.917Z,100498.97
2022-10-05T19:21:14.954Z,100497.34
2022-10-05T19:24:04.685Z,100510.38
2022-10-05T19:26:55.110Z,100509.50
2022-10-05T19:29:33.696Z,100519.13
2022-10-05T19:32:18.961Z,100498.47
2022-10-05T19:34:55.008Z,100516.53
2022-10-05T19:37:58.317Z,100502.84
2022-10-05T19:40:41.265Z,100521.81
2022-10-05T19:43:23.509Z,100500.28
2022-10-05T19:46:19.046Z,100514.06
2022-10-05T19:48:56.423Z,100509.94
2022-10-05T19:51:37.312Z,100524.50
2022-10-05T19:54:22.527Z,100522.81
2022-10-05T19:56:53.620Z,100528.00
2022-10-05T19:59:25.594Z,100522.81
2022-10-05T20:01:55.648Z,100480.00
2022-10-05T20:04:33.571Z,100523.00
2022-10-05T20:07:02.280Z,100538.56
2022-10-05T20:09:29.969Z,100531.59
2022-10-05T20:11:57.209Z,100537.63
2022-10-05T20:14:32.591Z,100543.75
2022-10-05T20:17:45.251Z,100528.38
2022-10-05T20:20:43.301Z,100543.75
2022-10-05T20:23:30.950Z,100549.03
2022-10-05T20:26:16.538Z,100538.78
2022-10-05T20:28:44.627Z,100531.88
2022-10-05T20:31:12.676Z,100555.13
2022-10-05T20:33:40.410Z,100554.31
2022-10-05T20:36:08.877Z,100536.28
2022-10-05T20:38:40.811Z,100564.66
2022-10-05T20:41:08.746Z,100562.16
2022-10-05T20:43:39.108Z,100568.19
2022-10-05T20:46:06.550Z,100557.03
2022-10-05T20:48:34.804Z,100527.13
2022-10-05T20:51:02.229Z,100528.81
2022-10-05T20:53:29.647Z,100525.38
2022-10-05T20:56:04.986Z,100538.38
2022-10-05T20:58:32.094Z,100552.78
2022-10-05T21:01:20.262Z,100531.41
2022-10-05T21:03:47.871Z,100479.16
2022-10-05T21:06:15.359Z,100520.19
2022-10-05T21:08:42.459Z,100533.88
2022-10-05T21:11:09.458Z,100506.44
2022-10-05T21:13:36.943Z,100553.78
2022-10-05T21:16:05.758Z,100515.13
2022-10-05T21:18:33.691Z,100554.63
2022-10-05T21:21:02.292Z,100553.78
2022-10-05T21:23:29.687Z,100537.53
2022-10-05T21:25:56.906Z,100561.59
2022-10-05T21:28:24.425Z,100528.88
2022-10-05T21:30:51.757Z,100559.81
2022-10-05T21:33:19.050Z,100534.03
2022-10-05T21:35:46.421Z,100551.13
2022-10-05T21:38:13.499Z,100537.47
2022-10-05T21:40:40.862Z,100560.69
2022-10-05T21:43:07.936Z,100559.81
2022-10-05T21:45:35.290Z,100561.53
2022-10-05T21:48:02.509Z,100561.53
2022-10-05T21:50:29.933Z,100563.28
2022-10-05T21:52:57.054Z,100556.38
2022-10-05T21:55:24.309Z,100513.63
2022-10-05T21:57:51.453Z,100570.28
2022-10-05T22:00:18.659Z,100548.84
2022-10-05T22:02:45.677Z,100535.97
2022-10-05T22:05:12.775Z,100554.03
2022-10-05T22:07:39.898Z,100563.53
2022-10-05T22:10:07.613Z,100566.97
2022-10-05T22:12:34.801Z,100558.47
2022-10-05T22:15:01.988Z,100572.22
2022-10-05T22:17:31.639Z,100570.53
2022-10-05T22:20:00.358Z,100563.66
2022-10-05T22:22:28.611Z,100532.84
2022-10-05T22:24:56.116Z,100567.16
2022-10-05T22:27:25.892Z,100533.78
2022-10-05T22:29:55.203Z,100515.75
2022-10-05T22:32:22.171Z,100563.03
2022-10-05T22:34:49.408Z,100570.78
2022-10-05T22:37:16.618Z,100565.66
2022-10-05T22:39:44.180Z,100563.94
2022-10-05T22:42:11.875Z,100564.03
2022-10-05T22:44:39.923Z,100564.06
2022-10-05T22:47:07.039Z,100548.66
2022-10-05T22:49:33.990Z,100561.56
2022-10-05T22:52:01.048Z,100564.13
2022-10-05T22:54:30.104Z,100562.44
2022-10-05T22:56:59.039Z,100565.88
2022-10-05T22:59:26.255Z,100545.22
2022-10-05T23:01:53.590Z,100561.63
2022-10-05T23:04:20.708Z,100538.50
2022-10-05T23:06:48.332Z,100547.09
2022-10-05T23:09:15.756Z,100559.88
2022-10-05T23:11:43.039Z,100562.53
2022-10-05T23:14:10.286Z,100567.72
2022-10-05T23:16:37.547Z,100534.28
2022-10-05T23:19:04.659Z,100524.84
2022-10-05T23:21:31.881Z,100554.03
2022-10-05T23:23:58.971Z,100542.84
2022-10-05T23:26:26.889Z,100578.09
2022-10-05T23:28:54.289Z,100571.19
2022-10-05T23:31:23.938Z,100574.69
2022-10-05T23:33:52.229Z,100523.25
2022-10-05T23:36:22.428Z,100571.28
2022-10-05T23:38:50.177Z,100578.22
2022-10-05T23:41:18.107Z,100550.69
2022-10-05T23:43:45.346Z,100564.47
2022-10-05T23:46:13.728Z,100541.38
2022-10-05T23:48:40.912Z,100574.81
2022-10-05T23:51:10.642Z,100581.75
2022-10-05T23:53:38.138Z,100579.16
2022-10-05T23:56:05.410Z,100580.06
2022-10-05T23:58:32.767Z,100571.44
